sensor_id;sensor_type;location;lat;lon;timestamp;P1;durP1;ratioP1;P2;durP2;ratioP2
57401;SDS011;43226;51.110;6.998;2023-12-07T00:01:27;27.10;;;13.97;;
57401;SDS011;43226;51.110;6.998;2023-12-07T00:03:53;22.57;;;12.57;;
57401;SDS011;43226;51.110;6.998;2023-12-07T00:06:18;19.60;;;12.47;;
57401;SDS011;43226;51.110;6.998;2023-12-07T00:08:43;29.00;;;13.17;;
57401;SDS011;43226;51.110;6.998;2023-12-07T00:11:08;21.83;;;12.90;;
57401;SDS011;43226;51.110;6.998;2023-12-07T00:13:33;20.67;;;11.17;;
57401;SDS011;43226;51.110;6.998;2023-12-07T00:15:58;21.73;;;12.10;;
57401;SDS011;43226;51.110;6.998;2023-12-07T00:18:24;29.83;;;13.23;;
57401;SDS011;43226;51.110;6.998;2023-12-07T00:20:49;21.80;;;12.30;;
57401;SDS011;43226;51.110;6.998;2023-12-07T00:23:14;24.13;;;13.00;;
57401;SDS011;43226;51.110;6.998;2023-12-07T00:25:39;19.77;;;12.63;;
57401;SDS011;43226;51.110;6.998;2023-12-07T00:28:05;26.37;;;11.87;;
57401;SDS011;43226;51.110;6.998;2023-12-07T00:30:30;23.57;;;11.50;;
57401;SDS011;43226;51.110;6.998;2023-12-07T00:32:55;19.77;;;11.27;;
57401;SDS011;43226;51.110;6.998;2023-12-07T00:35:20;20.93;;;11.30;;
57401;SDS011;43226;51.110;6.998;2023-12-07T00:37:47;21.83;;;11.97;;
57401;SDS011;43226;51.110;6.998;2023-12-07T00:40:12;19.77;;;11.27;;
57401;SDS011;43226;51.110;6.998;2023-12-07T00:42:37;20.43;;;11.43;;
57401;SDS011;43226;51.110;6.998;2023-12-07T00:45:03;19.57;;;12.07;;
57401;SDS011;43226;51.110;6.998;2023-12-07T00:47:28;24.77;;;11.80;;
57401;SDS011;43226;51.110;6.998;2023-12-07T00:49:53;20.40;;;10.90;;
57401;SDS011;43226;51.110;6.998;2023-12-07T00:52:18;20.43;;;12.23;;
57401;SDS011;43226;51.110;6.998;2023-12-07T00:54:43;20.77;;;11.90;;
57401;SDS011;43226;51.110;6.998;2023-12-07T00:57:09;23.03;;;11.67;;
57401;SDS011;43226;51.110;6.998;2023-12-07T00:59:34;20.57;;;12.23;;
57401;SDS011;43226;51.110;6.998;2023-12-07T01:02:00;23.93;;;12.40;;
57401;SDS011;43226;51.110;6.998;2023-12-07T01:04:26;21.70;;;11.27;;
57401;SDS011;43226;51.110;6.998;2023-12-07T01:06:52;24.23;;;13.77;;
57401;SDS011;43226;51.110;6.998;2023-12-07T01:09:17;17.10;;;11.30;;
57401;SDS011;43226;51.110;6.998;2023-12-07T01:11:42;19.63;;;11.07;;
57401;SDS011;43226;51.110;6.998;2023-12-07T01:14:07;15.70;;;10.57;;
57401;SDS011;43226;51.110;6.998;2023-12-07T01:16:33;16.60;;;10.47;;
57401;SDS011;43226;51.110;6.998;2023-12-07T01:18:58;19.27;;;11.70;;
57401;SDS011;43226;51.110;6.998;2023-12-07T01:21:23;24.43;;;13.47;;
57401;SDS011;43226;51.110;6.998;2023-12-07T01:23:48;21.60;;;12.27;;
57401;SDS011;43226;51.110;6.998;2023-12-07T01:26:14;19.70;;;12.67;;
57401;SDS011;43226;51.110;6.998;2023-12-07T01:28:39;19.60;;;13.00;;
57401;SDS011;43226;51.110;6.998;2023-12-07T01:31:04;24.50;;;12.43;;
57401;SDS011;43226;51.110;6.998;2023-12-07T01:33:29;20.60;;;12.60;;
57401;SDS011;43226;51.110;6.998;2023-12-07T01:35:54;19.00;;;12.60;;
57401;SDS011;43226;51.110;6.998;2023-12-07T01:38:20;21.00;;;13.17;;
57401;SDS011;43226;51.110;6.998;2023-12-07T01:40:45;20.00;;;12.10;;
57401;SDS011;43226;51.110;6.998;2023-12-07T01:43:10;18.30;;;12.50;;
57401;SDS011;43226;51.110;6.998;2023-12-07T01:45:35;19.07;;;11.60;;
57401;SDS011;43226;51.110;6.998;2023-12-07T01:48:00;21.37;;;11.97;;
57401;SDS011;43226;51.110;6.998;2023-12-07T01:50:25;19.97;;;12.27;;
57401;SDS011;43226;51.110;6.998;2023-12-07T01:52:54;24.93;;;12.03;;
57401;SDS011;43226;51.110;6.998;2023-12-07T01:55:21;19.70;;;12.50;;
57401;SDS011;43226;51.110;6.998;2023-12-07T01:57:47;22.23;;;11.83;;
57401;SDS011;43226;51.110;6.998;2023-12-07T02:00:13;23.67;;;12.47;;
57401;SDS011;43226;51.110;6.998;2023-12-07T02:02:39;18.60;;;11.67;;
57401;SDS011;43226;51.110;6.998;2023-12-07T02:05:04;22.83;;;12.03;;
57401;SDS011;43226;51.110;6.998;2023-12-07T02:07:30;19.43;;;12.50;;
57401;SDS011;43226;51.110;6.998;2023-12-07T02:09:55;22.17;;;12.60;;
57401;SDS011;43226;51.110;6.998;2023-12-07T02:12:21;27.77;;;13.20;;
57401;SDS011;43226;51.110;6.998;2023-12-07T02:14:46;20.57;;;12.00;;
57401;SDS011;43226;51.110;6.998;2023-12-07T02:17:17;21.67;;;12.50;;
57401;SDS011;43226;51.110;6.998;2023-12-07T02:22:14;22.87;;;13.30;;
57401;SDS011;43226;51.110;6.998;2023-12-07T02:24:44;22.03;;;12.90;;
57401;SDS011;43226;51.110;6.998;2023-12-07T02:27:13;24.13;;;13.47;;
57401;SDS011;43226;51.110;6.998;2023-12-07T02:29:38;24.90;;;13.50;;
57401;SDS011;43226;51.110;6.998;2023-12-07T02:32:03;23.73;;;13.67;;
57401;SDS011;43226;51.110;6.998;2023-12-07T02:34:29;22.87;;;13.20;;
57401;SDS011;43226;51.110;6.998;2023-12-07T02:36:54;27.40;;;12.80;;
57401;SDS011;43226;51.110;6.998;2023-12-07T02:39:20;19.70;;;12.90;;
57401;SDS011;43226;51.110;6.998;2023-12-07T02:41:45;19.47;;;12.50;;
57401;SDS011;43226;51.110;6.998;2023-12-07T02:44:12;27.77;;;14.70;;
57401;SDS011;43226;51.110;6.998;2023-12-07T02:46:37;24.10;;;14.37;;
57401;SDS011;43226;51.110;6.998;2023-12-07T02:49:02;22.83;;;13.27;;
57401;SDS011;43226;51.110;6.998;2023-12-07T02:51:28;27.70;;;14.07;;
57401;SDS011;43226;51.110;6.998;2023-12-07T02:53:53;24.17;;;14.47;;
57401;SDS011;43226;51.110;6.998;2023-12-07T02:56:18;28.30;;;16.20;;
57401;SDS011;43226;51.110;6.998;2023-12-07T02:58:43;34.40;;;15.07;;
57401;SDS011;43226;51.110;6.998;2023-12-07T03:01:08;24.23;;;14.40;;
57401;SDS011;43226;51.110;6.998;2023-12-07T03:03:33;29.50;;;15.80;;
57401;SDS011;43226;51.110;6.998;2023-12-07T03:05:59;28.70;;;15.50;;
57401;SDS011;43226;51.110;6.998;2023-12-07T03:08:24;28.53;;;13.77;;
57401;SDS011;43226;51.110;6.998;2023-12-07T03:10:49;28.50;;;15.30;;
57401;SDS011;43226;51.110;6.998;2023-12-07T03:13:14;24.40;;;15.33;;
57401;SDS011;43226;51.110;6.998;2023-12-07T03:15:39;24.07;;;14.50;;
57401;SDS011;43226;51.110;6.998;2023-12-07T03:18:04;23.37;;;14.47;;
57401;SDS011;43226;51.110;6.998;2023-12-07T03:20:30;29.00;;;14.17;;
57401;SDS011;43226;51.110;6.998;2023-12-07T03:22:55;34.40;;;14.60;;
57401;SDS011;43226;51.110;6.998;2023-12-07T03:25:21;24.20;;;14.47;;
57401;SDS011;43226;51.110;6.998;2023-12-07T03:27:46;24.80;;;12.90;;
57401;SDS011;43226;51.110;6.998;2023-12-07T03:30:11;27.97;;;14.83;;
57401;SDS011;43226;51.110;6.998;2023-12-07T03:32:37;23.23;;;12.53;;
57401;SDS011;43226;51.110;6.998;2023-12-07T03:35:02;29.67;;;15.07;;
57401;SDS011;43226;51.110;6.998;2023-12-07T03:37:27;24.00;;;13.77;;
57401;SDS011;43226;51.110;6.998;2023-12-07T03:39:52;24.37;;;14.37;;
57401;SDS011;43226;51.110;6.998;2023-12-07T03:42:18;31.67;;;16.50;;
57401;SDS011;43226;51.110;6.998;2023-12-07T03:44:43;24.77;;;14.40;;
57401;SDS011;43226;51.110;6.998;2023-12-07T03:47:09;27.13;;;14.03;;
57401;SDS011;43226;51.110;6.998;2023-12-07T03:49:34;24.67;;;14.90;;
57401;SDS011;43226;51.110;6.998;2023-12-07T03:51:59;30.07;;;15.97;;
57401;SDS011;43226;51.110;6.998;2023-12-07T03:54:24;34.20;;;15.87;;
57401;SDS011;43226;51.110;6.998;2023-12-07T03:56:49;29.70;;;15.90;;
57401;SDS011;43226;51.110;6.998;2023-12-07T03:59:15;31.57;;;16.43;;
57401;SDS011;43226;51.110;6.998;2023-12-07T04:01:40;30.00;;;15.47;;
57401;SDS011;43226;51.110;6.998;2023-12-07T04:04:05;32.40;;;17.13;;
57401;SDS011;43226;51.110;6.998;2023-12-07T04:06:30;32.60;;;15.00;;
57401;SDS011;43226;51.110;6.998;2023-12-07T04:08:56;32.50;;;14.90;;
57401;SDS011;43226;51.110;6.998;2023-12-07T04:11:21;29.90;;;15.33;;
57401;SDS011;43226;51.110;6.998;2023-12-07T04:13:47;24.53;;;13.20;;
57401;SDS011;43226;51.110;6.998;2023-12-07T04:16:12;27.03;;;14.20;;
57401;SDS011;43226;51.110;6.998;2023-12-07T04:18:37;31.33;;;14.67;;
57401;SDS011;43226;51.110;6.998;2023-12-07T04:21:03;34.47;;;16.10;;
57401;SDS011;43226;51.110;6.998;2023-12-07T04:23:28;30.80;;;14.67;;
57401;SDS011;43226;51.110;6.998;2023-12-07T04:25:53;37.37;;;16.73;;
57401;SDS011;43226;51.110;6.998;2023-12-07T04:28:19;27.20;;;13.67;;
57401;SDS011;43226;51.110;6.998;2023-12-07T04:30:44;32.13;;;16.73;;
57401;SDS011;43226;51.110;6.998;2023-12-07T04:33:09;31.83;;;18.00;;
57401;SDS011;43226;51.110;6.998;2023-12-07T04:35:34;34.20;;;15.97;;
57401;SDS011;43226;51.110;6.998;2023-12-07T04:38:00;30.17;;;15.70;;
57401;SDS011;43226;51.110;6.998;2023-12-07T04:40:25;28.23;;;16.57;;
57401;SDS011;43226;51.110;6.998;2023-12-07T04:42:50;33.10;;;15.93;;
57401;SDS011;43226;51.110;6.998;2023-12-07T04:45:15;35.40;;;16.20;;
57401;SDS011;43226;51.110;6.998;2023-12-07T04:47:41;32.30;;;18.23;;
57401;SDS011;43226;51.110;6.998;2023-12-07T04:50:06;26.87;;;15.43;;
57401;SDS011;43226;51.110;6.998;2023-12-07T04:52:31;33.07;;;14.83;;
57401;SDS011;43226;51.110;6.998;2023-12-07T04:54:56;27.60;;;14.60;;
57401;SDS011;43226;51.110;6.998;2023-12-07T04:57:22;28.50;;;15.60;;
57401;SDS011;43226;51.110;6.998;2023-12-07T04:59:47;36.13;;;18.60;;
57401;SDS011;43226;51.110;6.998;2023-12-07T05:02:13;33.07;;;18.67;;
57401;SDS011;43226;51.110;6.998;2023-12-07T05:04:38;32.50;;;17.10;;
57401;SDS011;43226;51.110;6.998;2023-12-07T05:07:04;32.00;;;18.23;;
57401;SDS011;43226;51.110;6.998;2023-12-07T05:09:29;37.97;;;17.97;;
57401;SDS011;43226;51.110;6.998;2023-12-07T05:11:55;33.50;;;17.27;;
57401;SDS011;43226;51.110;6.998;2023-12-07T05:14:21;29.77;;;16.17;;
57401;SDS011;43226;51.110;6.998;2023-12-07T05:16:46;31.23;;;15.40;;
57401;SDS011;43226;51.110;6.998;2023-12-07T05:19:13;30.97;;;15.87;;
57401;SDS011;43226;51.110;6.998;2023-12-07T05:21:38;28.17;;;15.27;;
57401;SDS011;43226;51.110;6.998;2023-12-07T05:24:03;28.90;;;14.47;;
57401;SDS011;43226;51.110;6.998;2023-12-07T05:26:28;38.50;;;18.60;;
57401;SDS011;43226;51.110;6.998;2023-12-07T05:28:54;28.23;;;14.07;;
57401;SDS011;43226;51.110;6.998;2023-12-07T05:31:19;34.67;;;15.33;;
57401;SDS011;43226;51.110;6.998;2023-12-07T05:33:45;31.37;;;15.00;;
57401;SDS011;43226;51.110;6.998;2023-12-07T05:36:10;30.70;;;16.17;;
57401;SDS011;43226;51.110;6.998;2023-12-07T05:38:37;33.40;;;15.30;;
57401;SDS011;43226;51.110;6.998;2023-12-07T05:41:02;29.03;;;15.07;;
57401;SDS011;43226;51.110;6.998;2023-12-07T05:43:28;27.90;;;15.33;;
57401;SDS011;43226;51.110;6.998;2023-12-07T05:45:53;31.60;;;16.53;;
57401;SDS011;43226;51.110;6.998;2023-12-07T05:48:18;32.57;;;15.57;;
57401;SDS011;43226;51.110;6.998;2023-12-07T05:50:43;26.57;;;14.20;;
57401;SDS011;43226;51.110;6.998;2023-12-07T05:53:08;28.70;;;15.63;;
57401;SDS011;43226;51.110;6.998;2023-12-07T05:55:34;25.00;;;14.37;;
57401;SDS011;43226;51.110;6.998;2023-12-07T05:57:59;24.87;;;12.97;;
57401;SDS011;43226;51.110;6.998;2023-12-07T06:00:24;19.30;;;11.47;;
57401;SDS011;43226;51.110;6.998;2023-12-07T06:02:50;27.63;;;12.90;;
57401;SDS011;43226;51.110;6.998;2023-12-07T06:05:15;22.07;;;11.97;;
57401;SDS011;43226;51.110;6.998;2023-12-07T06:07:40;24.57;;;13.00;;
57401;SDS011;43226;51.110;6.998;2023-12-07T06:10:06;27.30;;;12.67;;
57401;SDS011;43226;51.110;6.998;2023-12-07T06:12:31;21.03;;;13.47;;
57401;SDS011;43226;51.110;6.998;2023-12-07T06:14:57;25.60;;;12.87;;
57401;SDS011;43226;51.110;6.998;2023-12-07T06:17:22;25.17;;;13.73;;
57401;SDS011;43226;51.110;6.998;2023-12-07T06:19:47;22.13;;;12.23;;
57401;SDS011;43226;51.110;6.998;2023-12-07T06:22:12;21.20;;;12.07;;
57401;SDS011;43226;51.110;6.998;2023-12-07T06:24:39;18.73;;;11.13;;
57401;SDS011;43226;51.110;6.998;2023-12-07T06:27:04;23.50;;;12.73;;
57401;SDS011;43226;51.110;6.998;2023-12-07T06:29:29;21.90;;;12.63;;
57401;SDS011;43226;51.110;6.998;2023-12-07T06:31:54;35.53;;;12.63;;
57401;SDS011;43226;51.110;6.998;2023-12-07T06:34:20;21.07;;;11.73;;
57401;SDS011;43226;51.110;6.998;2023-12-07T06:36:45;20.30;;;11.70;;
57401;SDS011;43226;51.110;6.998;2023-12-07T06:39:10;21.40;;;11.60;;
57401;SDS011;43226;51.110;6.998;2023-12-07T06:41:35;22.70;;;12.03;;
57401;SDS011;43226;51.110;6.998;2023-12-07T06:44:00;31.67;;;12.73;;
57401;SDS011;43226;51.110;6.998;2023-12-07T06:46:26;23.43;;;12.80;;
57401;SDS011;43226;51.110;6.998;2023-12-07T06:48:51;29.07;;;12.93;;
57401;SDS011;43226;51.110;6.998;2023-12-07T06:51:16;24.13;;;11.80;;
57401;SDS011;43226;51.110;6.998;2023-12-07T06:53:41;21.60;;;11.33;;
57401;SDS011;43226;51.110;6.998;2023-12-07T06:56:07;16.67;;;10.50;;
57401;SDS011;43226;51.110;6.998;2023-12-07T06:58:32;23.40;;;10.97;;
57401;SDS011;43226;51.110;6.998;2023-12-07T07:00:58;19.93;;;11.87;;
57401;SDS011;43226;51.110;6.998;2023-12-07T07:03:23;23.30;;;11.50;;
57401;SDS011;43226;51.110;6.998;2023-12-07T07:05:49;28.33;;;11.40;;
57401;SDS011;43226;51.110;6.998;2023-12-07T07:08:14;25.90;;;13.47;;
57401;SDS011;43226;51.110;6.998;2023-12-07T07:10:39;21.40;;;12.53;;
57401;SDS011;43226;51.110;6.998;2023-12-07T07:13:05;26.20;;;12.50;;
57401;SDS011;43226;51.110;6.998;2023-12-07T07:15:30;22.50;;;11.90;;
57401;SDS011;43226;51.110;6.998;2023-12-07T07:17:55;26.93;;;12.70;;
57401;SDS011;43226;51.110;6.998;2023-12-07T07:20:21;18.00;;;10.90;;
57401;SDS011;43226;51.110;6.998;2023-12-07T07:22:47;25.23;;;10.23;;
57401;SDS011;43226;51.110;6.998;2023-12-07T07:25:12;21.80;;;12.60;;
57401;SDS011;43226;51.110;6.998;2023-12-07T07:27:40;28.13;;;15.27;;
57401;SDS011;43226;51.110;6.998;2023-12-07T07:30:05;27.93;;;13.10;;
57401;SDS011;43226;51.110;6.998;2023-12-07T07:32:30;22.20;;;12.77;;
57401;SDS011;43226;51.110;6.998;2023-12-07T07:34:56;17.57;;;10.37;;
57401;SDS011;43226;51.110;6.998;2023-12-07T07:37:21;15.97;;;10.30;;
57401;SDS011;43226;51.110;6.998;2023-12-07T07:39:46;28.93;;;14.07;;
57401;SDS011;43226;51.110;6.998;2023-12-07T07:42:12;22.53;;;12.90;;
57401;SDS011;43226;51.110;6.998;2023-12-07T07:44:37;21.77;;;10.80;;
57401;SDS011;43226;51.110;6.998;2023-12-07T07:47:02;20.90;;;11.50;;
57401;SDS011;43226;51.110;6.998;2023-12-07T07:49:27;27.83;;;11.37;;
57401;SDS011;43226;51.110;6.998;2023-12-07T07:51:52;22.80;;;9.97;;
57401;SDS011;43226;51.110;6.998;2023-12-07T07:54:18;15.23;;;9.50;;
57401;SDS011;43226;51.110;6.998;2023-12-07T07:56:43;14.63;;;9.17;;
57401;SDS011;43226;51.110;6.998;2023-12-07T07:59:08;17.53;;;9.73;;
57401;SDS011;43226;51.110;6.998;2023-12-07T08:01:33;26.10;;;14.87;;
57401;SDS011;43226;51.110;6.998;2023-12-07T08:03:59;20.83;;;10.77;;
57401;SDS011;43226;51.110;6.998;2023-12-07T08:06:24;17.67;;;9.57;;
57401;SDS011;43226;51.110;6.998;2023-12-07T08:08:49;17.13;;;9.20;;
57401;SDS011;43226;51.110;6.998;2023-12-07T08:11:14;23.13;;;13.00;;
57401;SDS011;43226;51.110;6.998;2023-12-07T08:13:40;24.57;;;12.60;;
57401;SDS011;43226;51.110;6.998;2023-12-07T08:16:07;22.60;;;13.40;;
57401;SDS011;43226;51.110;6.998;2023-12-07T08:18:33;16.97;;;11.30;;
57401;SDS011;43226;51.110;6.998;2023-12-07T08:20:58;16.53;;;10.83;;
57401;SDS011;43226;51.110;6.998;2023-12-07T08:23:24;13.90;;;9.60;;
57401;SDS011;43226;51.110;6.998;2023-12-07T08:25:49;13.17;;;9.40;;
57401;SDS011;43226;51.110;6.998;2023-12-07T08:28:14;26.23;;;16.50;;
57401;SDS011;43226;51.110;6.998;2023-12-07T08:30:39;47.47;;;23.23;;
57401;SDS011;43226;51.110;6.998;2023-12-07T08:33:04;21.33;;;11.93;;
57401;SDS011;43226;51.110;6.998;2023-12-07T08:35:29;15.57;;;10.23;;
57401;SDS011;43226;51.110;6.998;2023-12-07T08:37:55;15.57;;;9.67;;
57401;SDS011;43226;51.110;6.998;2023-12-07T08:40:20;13.10;;;8.00;;
57401;SDS011;43226;51.110;6.998;2023-12-07T08:42:45;11.77;;;8.17;;
57401;SDS011;43226;51.110;6.998;2023-12-07T08:45:11;10.70;;;7.27;;
57401;SDS011;43226;51.110;6.998;2023-12-07T08:47:36;15.00;;;7.97;;
57401;SDS011;43226;51.110;6.998;2023-12-07T08:50:01;12.03;;;8.70;;
57401;SDS011;43226;51.110;6.998;2023-12-07T08:52:27;11.03;;;7.53;;
57401;SDS011;43226;51.110;6.998;2023-12-07T08:54:52;24.67;;;13.03;;
57401;SDS011;43226;51.110;6.998;2023-12-07T08:57:17;16.83;;;11.73;;
57401;SDS011;43226;51.110;6.998;2023-12-07T08:59:42;14.90;;;10.63;;
57401;SDS011;43226;51.110;6.998;2023-12-07T09:02:08;15.50;;;9.97;;
57401;SDS011;43226;51.110;6.998;2023-12-07T09:04:33;13.50;;;8.90;;
57401;SDS011;43226;51.110;6.998;2023-12-07T09:06:58;18.40;;;11.07;;
57401;SDS011;43226;51.110;6.998;2023-12-07T09:09:23;16.00;;;10.60;;
57401;SDS011;43226;51.110;6.998;2023-12-07T09:11:50;16.70;;;9.50;;
57401;SDS011;43226;51.110;6.998;2023-12-07T09:14:15;10.90;;;7.53;;
57401;SDS011;43226;51.110;6.998;2023-12-07T09:16:44;16.37;;;9.70;;
57401;SDS011;43226;51.110;6.998;2023-12-07T09:19:09;12.33;;;7.80;;
57401;SDS011;43226;51.110;6.998;2023-12-07T09:21:35;18.73;;;9.50;;
57401;SDS011;43226;51.110;6.998;2023-12-07T09:24:01;10.20;;;7.87;;
57401;SDS011;43226;51.110;6.998;2023-12-07T09:26:26;17.33;;;10.10;;
57401;SDS011;43226;51.110;6.998;2023-12-07T09:28:52;13.00;;;8.07;;
57401;SDS011;43226;51.110;6.998;2023-12-07T09:31:17;14.93;;;8.93;;
57401;SDS011;43226;51.110;6.998;2023-12-07T09:33:42;10.60;;;8.27;;
57401;SDS011;43226;51.110;6.998;2023-12-07T09:36:08;12.07;;;8.50;;
57401;SDS011;43226;51.110;6.998;2023-12-07T09:38:35;16.27;;;10.57;;
57401;SDS011;43226;51.110;6.998;2023-12-07T09:41:00;13.73;;;8.03;;
57401;SDS011;43226;51.110;6.998;2023-12-07T09:43:25;12.47;;;8.20;;
57401;SDS011;43226;51.110;6.998;2023-12-07T09:45:51;14.80;;;9.33;;
57401;SDS011;43226;51.110;6.998;2023-12-07T09:48:19;14.37;;;8.47;;
57401;SDS011;43226;51.110;6.998;2023-12-07T09:50:44;12.00;;;8.03;;
57401;SDS011;43226;51.110;6.998;2023-12-07T09:53:09;15.47;;;9.47;;
57401;SDS011;43226;51.110;6.998;2023-12-07T09:55:35;13.33;;;8.00;;
57401;SDS011;43226;51.110;6.998;2023-12-07T09:58:00;17.43;;;9.77;;
57401;SDS011;43226;51.110;6.998;2023-12-07T10:00:26;25.43;;;14.23;;
57401;SDS011;43226;51.110;6.998;2023-12-07T10:02:51;26.07;;;13.90;;
57401;SDS011;43226;51.110;6.998;2023-12-07T10:05:16;20.30;;;7.13;;
57401;SDS011;43226;51.110;6.998;2023-12-07T10:07:42;26.80;;;15.43;;
57401;SDS011;43226;51.110;6.998;2023-12-07T10:10:08;22.33;;;11.67;;
57401;SDS011;43226;51.110;6.998;2023-12-07T10:12:34;7.07;;;5.80;;
57401;SDS011;43226;51.110;6.998;2023-12-07T10:15:00;8.43;;;6.27;;
57401;SDS011;43226;51.110;6.998;2023-12-07T10:17:47;16.20;;;8.03;;
57401;SDS011;43226;51.110;6.998;2023-12-07T10:20:13;17.30;;;9.37;;
57401;SDS011;43226;51.110;6.998;2023-12-07T10:22:39;12.03;;;6.83;;
57401;SDS011;43226;51.110;6.998;2023-12-07T10:25:04;15.93;;;8.43;;
57401;SDS011;43226;51.110;6.998;2023-12-07T10:27:29;14.87;;;10.30;;
57401;SDS011;43226;51.110;6.998;2023-12-07T10:29:54;14.90;;;8.50;;
57401;SDS011;43226;51.110;6.998;2023-12-07T10:32:21;15.13;;;8.37;;
57401;SDS011;43226;51.110;6.998;2023-12-07T10:34:46;10.27;;;7.00;;
57401;SDS011;43226;51.110;6.998;2023-12-07T10:37:11;14.73;;;9.07;;
57401;SDS011;43226;51.110;6.998;2023-12-07T10:39:37;10.93;;;7.37;;
57401;SDS011;43226;51.110;6.998;2023-12-07T10:42:02;13.07;;;8.10;;
57401;SDS011;43226;51.110;6.998;2023-12-07T10:44:30;11.33;;;8.83;;
57401;SDS011;43226;51.110;6.998;2023-12-07T10:46:57;17.70;;;8.13;;
57401;SDS011;43226;51.110;6.998;2023-12-07T10:49:23;16.53;;;7.20;;
57401;SDS011;43226;51.110;6.998;2023-12-07T10:51:52;12.70;;;8.43;;
57401;SDS011;43226;51.110;6.998;2023-12-07T10:54:22;10.67;;;5.60;;
57401;SDS011;43226;51.110;6.998;2023-12-07T10:56:47;15.37;;;10.07;;
57401;SDS011;43226;51.110;6.998;2023-12-07T10:59:14;13.53;;;7.87;;
57401;SDS011;43226;51.110;6.998;2023-12-07T11:01:39;26.73;;;9.13;;
57401;SDS011;43226;51.110;6.998;2023-12-07T11:04:05;6.80;;;4.60;;
57401;SDS011;43226;51.110;6.998;2023-12-07T11:06:31;16.80;;;8.80;;
57401;SDS011;43226;51.110;6.998;2023-12-07T11:08:57;14.00;;;7.53;;
57401;SDS011;43226;51.110;6.998;2023-12-07T11:11:46;12.80;;;7.40;;
57401;SDS011;43226;51.110;6.998;2023-12-07T11:14:09;10.60;;;6.80;;
57401;SDS011;43226;51.110;6.998;2023-12-07T11:16:39;13.90;;;6.87;;
57401;SDS011;43226;51.110;6.998;2023-12-07T11:19:06;10.07;;;7.07;;
57401;SDS011;43226;51.110;6.998;2023-12-07T11:21:48;11.00;;;6.57;;
57401;SDS011;43226;51.110;6.998;2023-12-07T11:24:16;13.60;;;6.80;;
57401;SDS011;43226;51.110;6.998;2023-12-07T11:26:42;10.00;;;6.57;;
57401;SDS011;43226;51.110;6.998;2023-12-07T11:29:07;14.70;;;6.77;;
57401;SDS011;43226;51.110;6.998;2023-12-07T11:31:33;10.60;;;6.40;;
57401;SDS011;43226;51.110;6.998;2023-12-07T11:33:58;12.57;;;7.83;;
57401;SDS011;43226;51.110;6.998;2023-12-07T11:36:30;26.10;;;14.73;;
57401;SDS011;43226;51.110;6.998;2023-12-07T11:41:43;12.97;;;7.53;;
57401;SDS011;43226;51.110;6.998;2023-12-07T11:44:09;12.17;;;8.43;;
57401;SDS011;43226;51.110;6.998;2023-12-07T11:46:34;11.77;;;8.90;;
57401;SDS011;43226;51.110;6.998;2023-12-07T11:49:00;10.30;;;6.77;;
57401;SDS011;43226;51.110;6.998;2023-12-07T11:51:26;16.67;;;8.60;;
57401;SDS011;43226;51.110;6.998;2023-12-07T11:53:54;10.90;;;7.23;;
57401;SDS011;43226;51.110;6.998;2023-12-07T11:56:19;12.43;;;6.70;;
57401;SDS011;43226;51.110;6.998;2023-12-07T11:58:46;12.10;;;8.23;;
57401;SDS011;43226;51.110;6.998;2023-12-07T12:01:12;8.73;;;6.20;;
57401;SDS011;43226;51.110;6.998;2023-12-07T12:03:37;8.47;;;6.67;;
57401;SDS011;43226;51.110;6.998;2023-12-07T12:06:03;10.33;;;6.83;;
57401;SDS011;43226;51.110;6.998;2023-12-07T12:08:28;27.57;;;9.40;;
57401;SDS011;43226;51.110;6.998;2023-12-07T12:10:54;11.93;;;7.33;;
57401;SDS011;43226;51.110;6.998;2023-12-07T12:13:25;13.10;;;6.33;;
57401;SDS011;43226;51.110;6.998;2023-12-07T12:15:51;6.80;;;5.27;;
57401;SDS011;43226;51.110;6.998;2023-12-07T12:18:16;9.47;;;7.00;;
57401;SDS011;43226;51.110;6.998;2023-12-07T12:20:41;8.83;;;5.83;;
57401;SDS011;43226;51.110;6.998;2023-12-07T12:23:09;12.00;;;7.10;;
57401;SDS011;43226;51.110;6.998;2023-12-07T12:25:34;13.67;;;7.67;;
57401;SDS011;43226;51.110;6.998;2023-12-07T12:28:03;12.67;;;6.53;;
57401;SDS011;43226;51.110;6.998;2023-12-07T12:30:28;14.40;;;7.73;;
57401;SDS011;43226;51.110;6.998;2023-12-07T12:32:54;10.27;;;7.67;;
57401;SDS011;43226;51.110;6.998;2023-12-07T12:35:20;11.40;;;6.83;;
57401;SDS011;43226;51.110;6.998;2023-12-07T12:37:45;15.13;;;6.97;;
57401;SDS011;43226;51.110;6.998;2023-12-07T12:40:11;9.00;;;6.67;;
57401;SDS011;43226;51.110;6.998;2023-12-07T12:42:37;9.13;;;5.87;;
57401;SDS011;43226;51.110;6.998;2023-12-07T12:45:03;21.50;;;7.50;;
57401;SDS011;43226;51.110;6.998;2023-12-07T12:47:28;7.80;;;5.73;;
57401;SDS011;43226;51.110;6.998;2023-12-07T12:49:54;9.47;;;6.17;;
57401;SDS011;43226;51.110;6.998;2023-12-07T12:52:19;12.00;;;6.67;;
57401;SDS011;43226;51.110;6.998;2023-12-07T12:54:44;9.67;;;6.30;;
57401;SDS011;43226;51.110;6.998;2023-12-07T12:57:10;7.83;;;5.83;;
57401;SDS011;43226;51.110;6.998;2023-12-07T12:59:35;7.43;;;5.10;;
57401;SDS011;43226;51.110;6.998;2023-12-07T13:02:00;7.53;;;4.57;;
57401;SDS011;43226;51.110;6.998;2023-12-07T13:04:29;9.07;;;6.20;;
57401;SDS011;43226;51.110;6.998;2023-12-07T13:06:54;11.10;;;5.40;;
57401;SDS011;43226;51.110;6.998;2023-12-07T13:09:19;8.47;;;4.67;;
57401;SDS011;43226;51.110;6.998;2023-12-07T13:11:46;11.13;;;6.50;;
57401;SDS011;43226;51.110;6.998;2023-12-07T13:14:12;14.07;;;7.10;;
57401;SDS011;43226;51.110;6.998;2023-12-07T13:16:37;10.97;;;5.80;;
57401;SDS011;43226;51.110;6.998;2023-12-07T13:19:02;10.13;;;7.30;;
57401;SDS011;43226;51.110;6.998;2023-12-07T13:21:27;15.37;;;9.37;;
57401;SDS011;43226;51.110;6.998;2023-12-07T13:23:52;10.00;;;6.10;;
57401;SDS011;43226;51.110;6.998;2023-12-07T13:26:18;8.00;;;4.30;;
57401;SDS011;43226;51.110;6.998;2023-12-07T13:28:44;8.00;;;5.27;;
57401;SDS011;43226;51.110;6.998;2023-12-07T13:31:09;10.63;;;5.03;;
57401;SDS011;43226;51.110;6.998;2023-12-07T13:33:34;5.50;;;4.10;;
57401;SDS011;43226;51.110;6.998;2023-12-07T13:35:59;17.93;;;4.20;;
57401;SDS011;43226;51.110;6.998;2023-12-07T13:38:26;10.63;;;5.73;;
57401;SDS011;43226;51.110;6.998;2023-12-07T13:40:54;17.00;;;5.43;;
57401;SDS011;43226;51.110;6.998;2023-12-07T13:43:20;7.87;;;5.67;;
57401;SDS011;43226;51.110;6.998;2023-12-07T13:45:46;8.03;;;5.40;;
57401;SDS011;43226;51.110;6.998;2023-12-07T13:48:11;6.33;;;4.50;;
57401;SDS011;43226;51.110;6.998;2023-12-07T13:50:37;22.83;;;12.73;;
57401;SDS011;43226;51.110;6.998;2023-12-07T13:53:02;6.60;;;3.90;;
57401;SDS011;43226;51.110;6.998;2023-12-07T13:55:28;6.40;;;3.47;;
57401;SDS011;43226;51.110;6.998;2023-12-07T13:57:53;11.07;;;5.00;;
57401;SDS011;43226;51.110;6.998;2023-12-07T14:00:21;7.03;;;5.13;;
57401;SDS011;43226;51.110;6.998;2023-12-07T14:02:47;8.33;;;5.50;;
57401;SDS011;43226;51.110;6.998;2023-12-07T14:05:12;7.67;;;5.30;;
57401;SDS011;43226;51.110;6.998;2023-12-07T14:07:38;7.07;;;4.53;;
57401;SDS011;43226;51.110;6.998;2023-12-07T14:10:04;15.63;;;6.47;;
57401;SDS011;43226;51.110;6.998;2023-12-07T14:12:29;7.97;;;5.37;;
57401;SDS011;43226;51.110;6.998;2023-12-07T14:14:54;7.00;;;4.70;;
57401;SDS011;43226;51.110;6.998;2023-12-07T14:17:20;10.40;;;5.63;;
57401;SDS011;43226;51.110;6.998;2023-12-07T14:19:47;10.60;;;5.60;;
57401;SDS011;43226;51.110;6.998;2023-12-07T14:22:13;6.57;;;4.80;;
57401;SDS011;43226;51.110;6.998;2023-12-07T14:24:38;10.03;;;4.90;;